sensor_id;sensor_type;location;lat;lon;timestamp;pressure;altitude;pressure_sealevel;temperature;humidity
19748;BME280;10032;51.386;12.516;2022-12-18T00:01:53;101782.34;;;-6.92;100.00
19748;BME280;10032;51.386;12.516;2022-12-18T00:04:22;101778.63;;;-7.02;100.00
19748;BME280;10032;51.386;12.516;2022-12-18T00:06:48;101792.72;;;-7.03;100.00
19748;BME280;10032;51.386;12.516;2022-12-18T00:09:13;101791.03;;;-7.04;100.00
19748;BME280;10032;51.386;12.516;2022-12-18T00:11:38;101793.78;;;-7.06;100.00
19748;BME280;10032;51.386;12.516;2022-12-18T00:14:04;101791.97;;;-7.05;100.00
19748;BME280;10032;51.386;12.516;2022-12-18T00:16:29;101783.63;;;-7.12;100.00
19748;BME280;10032;51.386;12.516;2022-12-18T00:18:58;101793.53;;;-7.29;100.00
19748;BME280;10032;51.386;12.516;2022-12-18T00:21:23;101791.75;;;-7.43;100.00
19748;BME280;10032;51.386;12.516;2022-12-18T00:23:49;101793.81;;;-7.62;100.00
19748;BME280;10032;51.386;12.516;2022-12-18T00:26:20;101802.47;;;-7.60;100.00
19748;BME280;10032;51.386;12.516;2022-12-18T00:28:47;101800.28;;;-7.53;100.00
19748;BME280;10032;51.386;12.516;2022-12-18T00:31:15;101787.16;;;-7.53;100.00
19748;BME280;10032;51.386;12.516;2022-12-18T00:33:41;101790.72;;;-7.82;100.00
19748;BME280;10032;51.386;12.516;2022-12-18T00:36:10;101786.00;;;-7.91;100.00
19748;BME280;10032;51.386;12.516;2022-12-18T00:38:38;101806.22;;;-7.78;100.00
19748;BME280;10032;51.386;12.516;2022-12-18T00:41:04;101797.94;;;-7.72;100.00
19748;BME280;10032;51.386;12.516;2022-12-18T00:43:29;101795.06;;;-7.67;100.00
19748;BME280;10032;51.386;12.516;2022-12-18T00:45:55;101791.47;;;-7.66;100.00
19748;BME280;10032;51.386;12.516;2022-12-18T00:48:20;101793.16;;;-7.65;100.00
19748;BME280;10032;51.386;12.516;2022-12-18T00:50:47;101800.19;;;-7.66;100.00
19748;BME280;10032;51.386;12.516;2022-12-18T00:53:13;101800.31;;;-7.67;100.00
19748;BME280;10032;51.386;12.516;2022-12-18T00:55:42;101795.06;;;-7.67;100.00
19748;BME280;10032;51.386;12.516;2022-12-18T00:58:09;101798.91;;;-7.73;100.00
19748;BME280;10032;51.386;12.516;2022-12-18T01:00:35;101804.16;;;-7.73;100.00
19748;BME280;10032;51.386;12.516;2022-12-18T01:03:00;101803.41;;;-7.75;100.00
19748;BME280;10032;51.386;12.516;2022-12-18T01:05:26;101799.84;;;-7.74;100.00
19748;BME280;10032;51.386;12.516;2022-12-18T01:07:51;101794.88;;;-7.78;100.00
19748;BME280;10032;51.386;12.516;2022-12-18T01:10:17;101798.16;;;-7.75;100.00
19748;BME280;10032;51.386;12.516;2022-12-18T01:12:43;101800.00;;;-7.77;100.00
19748;BME280;10032;51.386;12.516;2022-12-18T01:15:09;101807.78;;;-7.89;100.00
19748;BME280;10032;51.386;12.516;2022-12-18T01:17:35;101807.69;;;-7.88;100.00
19748;BME280;10032;51.386;12.516;2022-12-18T01:20:01;101799.91;;;-7.89;100.00
19748;BME280;10032;51.386;12.516;2022-12-18T01:22:26;101807.03;;;-7.91;100.00
19748;BME280;10032;51.386;12.516;2022-12-18T01:24:52;101805.06;;;-7.88;100.00
19748;BME280;10032;51.386;12.516;2022-12-18T01:27:17;101805.00;;;-7.86;100.00
19748;BME280;10032;51.386;12.516;2022-12-18T01:29:43;101812.72;;;-7.83;100.00
19748;BME280;10032;51.386;12.516;2022-12-18T01:32:08;101814.34;;;-7.96;100.00
19748;BME280;10032;51.386;12.516;2022-12-18T01:34:35;101825.25;;;-8.02;100.00
19748;BME280;10032;51.386;12.516;2022-12-18T01:37:03;101824.88;;;-7.96;100.00
19748;BME280;10032;51.386;12.516;2022-12-18T01:39:28;101825.53;;;-7.93;100.00
19748;BME280;10032;51.386;12.516;2022-12-18T01:41:54;101826.41;;;-7.92;100.00
19748;BME280;10032;51.386;12.516;2022-12-18T01:47:55;101828.44;;;-7.97;100.00
19748;BME280;10032;51.386;12.516;2022-12-18T01:50:25;101835.34;;;-8.10;100.00
19748;BME280;10032;51.386;12.516;2022-12-18T01:52:58;101841.38;;;-8.08;100.00
19748;BME280;10032;51.386;12.516;2022-12-18T01:55:31;101837.06;;;-8.09;100.00
19748;BME280;10032;51.386;12.516;2022-12-18T01:57:58;101837.72;;;-8.06;100.00
19748;BME280;10032;51.386;12.516;2022-12-18T02:00:25;101840.16;;;-8.03;100.00
19748;BME280;10032;51.386;12.516;2022-12-18T02:02:52;101840.28;;;-8.04;100.00
19748;BME280;10032;51.386;12.516;2022-12-18T02:05:26;101840.53;;;-8.09;100.00
19748;BME280;10032;51.386;12.516;2022-12-18T02:08:10;101838.84;;;-8.10;100.00
19748;BME280;10032;51.386;12.516;2022-12-18T02:10:48;101838.91;;;-8.11;100.00
19748;BME280;10032;51.386;12.516;2022-12-18T02:18:44;101838.84;;;-8.10;100.00
19748;BME280;10032;51.386;12.516;2022-12-18T02:21:20;101843.22;;;-8.10;100.00
19748;BME280;10032;51.386;12.516;2022-12-18T02:26:53;101844.44;;;-8.16;100.00
19748;BME280;10032;51.386;12.516;2022-12-18T02:29:23;101850.94;;;-8.21;100.00
19748;BME280;10032;51.386;12.516;2022-12-18T02:31:54;101851.28;;;-8.27;100.00
19748;BME280;10032;51.386;12.516;2022-12-18T02:34:24;101846.03;;;-8.27;100.00
19748;BME280;10032;51.386;12.516;2022-12-18T02:36:52;101848.94;;;-8.32;100.00
19748;BME280;10032;51.386;12.516;2022-12-18T02:39:21;101846.38;;;-8.33;100.00
19748;BME280;10032;51.386;12.516;2022-12-18T02:41:47;101849.28;;;-8.38;100.00
19748;BME280;10032;51.386;12.516;2022-12-18T02:44:14;101846.00;;;-8.41;100.00
19748;BME280;10032;51.386;12.516;2022-12-18T02:46:42;101850.66;;;-8.46;100.00
19748;BME280;10032;51.386;12.516;2022-12-18T02:49:40;101844.63;;;-8.48;100.00
19748;BME280;10032;51.386;12.516;2022-12-18T02:52:31;101846.25;;;-8.46;100.00
19748;BME280;10032;51.386;12.516;2022-12-18T03:00:33;101838.88;;;-8.39;100.00
19748;BME280;10032;51.386;12.516;2022-12-18T03:03:11;101849.28;;;-8.38;100.00
19748;BME280;10032;51.386;12.516;2022-12-18T03:08:25;101848.06;;;-8.32;100.00
19748;BME280;10032;51.386;12.516;2022-12-18T03:10:55;101841.81;;;-8.30;100.00
19748;BME280;10032;51.386;12.516;2022-12-18T03:13:54;101851.28;;;-8.27;100.00
19748;BME280;10032;51.386;12.516;2022-12-18T03:16:23;101852.81;;;-8.23;100.00
19748;BME280;10032;51.386;12.516;2022-12-18T03:18:56;101849.03;;;-8.19;100.00
19748;BME280;10032;51.386;12.516;2022-12-18T03:21:49;101862.94;;;-8.17;100.00
19748;BME280;10032;51.386;12.516;2022-12-18T03:24:17;101863.88;;;-8.18;100.00
19748;BME280;10032;51.386;12.516;2022-12-18T03:26:46;101866.41;;;-8.17;100.00
19748;BME280;10032;51.386;12.516;2022-12-18T03:29:24;101869.78;;;-8.15;100.00
19748;BME280;10032;51.386;12.516;2022-12-18T03:31:57;101871.03;;;-8.20;100.00
19748;BME280;10032;51.386;12.516;2022-12-18T03:34:30;101891.19;;;-8.21;100.00
19748;BME280;10032;51.386;12.516;2022-12-18T03:36:56;101883.47;;;-8.24;100.00
19748;BME280;10032;51.386;12.516;2022-12-18T03:39:23;101884.69;;;-8.29;100.00
19748;BME280;10032;51.386;12.516;2022-12-18T03:41:55;101882.81;;;-8.27;100.00
19748;BME280;10032;51.386;12.516;2022-12-18T03:44:37;101877.75;;;-8.30;100.00
19748;BME280;10032;51.386;12.516;2022-12-18T03:47:09;101878.59;;;-8.30;100.00
19748;BME280;10032;51.386;12.516;2022-12-18T03:50:15;101876.03;;;-8.31;100.00
19748;BME280;10032;51.386;12.516;2022-12-18T03:52:49;101877.06;;;-8.34;100.00
19748;BME280;10032;51.386;12.516;2022-12-18T03:55:19;101876.22;;;-8.34;100.00
19748;BME280;10032;51.386;12.516;2022-12-18T03:57:46;101877.25;;;-8.37;100.00
19748;BME280;10032;51.386;12.516;2022-12-18T04:00:15;101874.13;;;-8.43;100.00
19748;BME280;10032;51.386;12.516;2022-12-18T04:02:54;101866.22;;;-8.43;100.00
19748;BME280;10032;51.386;12.516;2022-12-18T04:05:20;101857.41;;;-8.42;100.00
19748;BME280;10032;51.386;12.516;2022-12-18T04:07:48;101869.63;;;-8.41;100.00
19748;BME280;10032;51.386;12.516;2022-12-18T04:10:15;101875.13;;;-8.46;100.00
19748;BME280;10032;51.386;12.516;2022-12-18T04:12:41;101876.75;;;-8.43;100.00
19748;BME280;10032;51.386;12.516;2022-12-18T04:15:07;101875.06;;;-8.44;100.00
19748;BME280;10032;51.386;12.516;2022-12-18T04:17:33;101871.41;;;-8.42;100.00
19748;BME280;10032;51.386;12.516;2022-12-18T04:19:59;101878.28;;;-8.39;100.00
19748;BME280;10032;51.386;12.516;2022-12-18T04:22:24;101871.25;;;-8.39;100.00
19748;BME280;10032;51.386;12.516;2022-12-18T04:24:49;101864.19;;;-8.38;100.00
19748;BME280;10032;51.386;12.516;2022-12-18T04:27:15;101861.56;;;-8.38;100.00
19748;BME280;10032;51.386;12.516;2022-12-18T04:29:41;101858.13;;;-8.39;100.00
19748;BME280;10032;51.386;12.516;2022-12-18T04:32:07;101856.16;;;-8.35;100.00
19748;BME280;10032;51.386;12.516;2022-12-18T04:34:33;101870.88;;;-8.33;100.00
19748;BME280;10032;51.386;12.516;2022-12-18T04:36:58;101862.91;;;-8.31;100.00
19748;BME280;10032;51.386;12.516;2022-12-18T04:39:23;101868.94;;;-8.29;100.00
19748;BME280;10032;51.386;12.516;2022-12-18T04:41:49;101863.69;;;-8.29;100.00
19748;BME280;10032;51.386;12.516;2022-12-18T04:44:14;101859.94;;;-8.25;100.00
19748;BME280;10032;51.386;12.516;2022-12-18T04:46:40;101864.34;;;-8.26;100.00
19748;BME280;10032;51.386;12.516;2022-12-18T04:49:05;101867.91;;;-8.27;100.00
19748;BME280;10032;51.386;12.516;2022-12-18T04:51:31;101868.72;;;-8.26;100.00
19748;BME280;10032;51.386;12.516;2022-12-18T04:53:56;101865.28;;;-8.27;100.00
19748;BME280;10032;51.386;12.516;2022-12-18T04:56:21;101857.41;;;-8.27;100.00
19748;BME280;10032;51.386;12.516;2022-12-18T04:58:47;101860.84;;;-8.26;100.00
19748;BME280;10032;51.386;12.516;2022-12-18T05:01:14;101860.09;;;-8.28;100.00
19748;BME280;10032;51.386;12.516;2022-12-18T05:03:40;101860.09;;;-8.28;100.00
19748;BME280;10032;51.386;12.516;2022-12-18T05:06:06;101860.97;;;-8.28;100.00
19748;BME280;10032;51.386;12.516;2022-12-18T05:08:32;101858.50;;;-8.31;100.00
19748;BME280;10032;51.386;12.516;2022-12-18T05:11:03;101859.75;;;-8.22;100.00
19748;BME280;10032;51.386;12.516;2022-12-18T05:13:29;101860.31;;;-8.17;100.00
19748;BME280;10032;51.386;12.516;2022-12-18T05:15:55;101861.06;;;-8.15;100.00
19748;BME280;10032;51.386;12.516;2022-12-18T05:18:24;101867.91;;;-8.13;100.00
19748;BME280;10032;51.386;12.516;2022-12-18T05:20:51;101868.84;;;-8.14;100.00
19748;BME280;10032;51.386;12.516;2022-12-18T05:23:17;101871.38;;;-8.12;100.00
19748;BME280;10032;51.386;12.516;2022-12-18T05:25:53;101859.19;;;-8.13;100.00
19748;BME280;10032;51.386;12.516;2022-12-18T05:28:20;101861.75;;;-8.12;100.00
19748;BME280;10032;51.386;12.516;2022-12-18T05:30:50;101866.13;;;-8.12;100.00
19748;BME280;10032;51.386;12.516;2022-12-18T05:33:16;101871.47;;;-8.14;100.00
19748;BME280;10032;51.386;12.516;2022-12-18T05:35:42;101871.66;;;-8.17;100.00
19748;BME280;10032;51.386;12.516;2022-12-18T05:38:07;101874.31;;;-8.17;100.00
19748;BME280;10032;51.386;12.516;2022-12-18T05:40:32;101888.47;;;-8.19;100.00
19748;BME280;10032;51.386;12.516;2022-12-18T05:42:58;101879.84;;;-8.21;100.00
19748;BME280;10032;51.386;12.516;2022-12-18T05:45:23;101880.03;;;-8.24;100.00
19748;BME280;10032;51.386;12.516;2022-12-18T05:47:49;101888.66;;;-8.22;100.00
19748;BME280;10032;51.386;12.516;2022-12-18T05:50:15;101892.31;;;-8.25;100.00
19748;BME280;10032;51.386;12.516;2022-12-18T05:52:40;101903.84;;;-8.27;100.00
19748;BME280;10032;51.386;12.516;2022-12-18T05:55:06;101908.41;;;-8.31;100.00
19748;BME280;10032;51.386;12.516;2022-12-18T05:57:31;101902.50;;;-8.34;100.00
19748;BME280;10032;51.386;12.516;2022-12-18T05:59:57;101910.53;;;-8.37;100.00
19748;BME280;10032;51.386;12.516;2022-12-18T06:02:22;101906.56;;;-8.44;100.00
19748;BME280;10032;51.386;12.516;2022-12-18T06:04:48;101911.31;;;-8.51;100.00
19748;BME280;10032;51.386;12.516;2022-12-18T06:07:13;101913.84;;;-8.49;100.00
19748;BME280;10032;51.386;12.516;2022-12-18T06:09:38;101917.22;;;-8.47;100.00
19748;BME280;10032;51.386;12.516;2022-12-18T06:12:04;101919.13;;;-8.49;100.00
19748;BME280;10032;51.386;12.516;2022-12-18T06:14:30;101913.84;;;-8.49;100.00
19748;BME280;10032;51.386;12.516;2022-12-18T06:16:55;101924.44;;;-8.51;100.00
19748;BME280;10032;51.386;12.516;2022-12-18T06:19:21;101918.59;;;-8.56;100.00
19748;BME280;10032;51.386;12.516;2022-12-18T06:21:46;101920.47;;;-8.58;100.00
19748;BME280;10032;51.386;12.516;2022-12-18T06:24:12;101921.34;;;-8.57;100.00
19748;BME280;10032;51.386;12.516;2022-12-18T06:26:40;101931.91;;;-8.59;100.00
19748;BME280;10032;51.386;12.516;2022-12-18T06:29:06;101934.47;;;-8.57;100.00
19748;BME280;10032;51.386;12.516;2022-12-18T06:31:31;101931.91;;;-8.59;100.00
19748;BME280;10032;51.386;12.516;2022-12-18T06:33:57;101933.88;;;-8.62;100.00
19748;BME280;10032;51.386;12.516;2022-12-18T06:36:22;101944.53;;;-8.65;100.00
19748;BME280;10032;51.386;12.516;2022-12-18T06:38:48;101941.16;;;-8.67;100.00
19748;BME280;10032;51.386;12.516;2022-12-18T06:41:16;101944.53;;;-8.65;100.00
19748;BME280;10032;51.386;12.516;2022-12-18T06:43:42;101931.31;;;-8.64;100.00
19748;BME280;10032;51.386;12.516;2022-12-18T06:46:08;101931.31;;;-8.64;100.00
19748;BME280;10032;51.386;12.516;2022-12-18T06:48:33;101929.94;;;-8.71;100.00
19748;BME280;10032;51.386;12.516;2022-12-18T06:51:02;101933.50;;;-8.72;100.00
19748;BME280;10032;51.386;12.516;2022-12-18T06:53:28;101937.06;;;-8.73;100.00
19748;BME280;10032;51.386;12.516;2022-12-18T06:56:00;101937.34;;;-8.77;100.00
19748;BME280;10032;51.386;12.516;2022-12-18T06:58:26;101932.84;;;-8.75;100.00
19748;BME280;10032;51.386;12.516;2022-12-18T07:00:55;101938.00;;;-8.74;100.00
19748;BME280;10032;51.386;12.516;2022-12-18T07:03:24;101948.78;;;-8.78;100.00
19748;BME280;10032;51.386;12.516;2022-12-18T07:05:49;101955.19;;;-8.84;100.00
19748;BME280;10032;51.386;12.516;2022-12-18T07:08:14;101946.78;;;-8.90;100.00
19748;BME280;10032;51.386;12.516;2022-12-18T07:10:42;101937.22;;;-8.91;100.00
19748;BME280;10032;51.386;12.516;2022-12-18T07:13:07;101938.16;;;-8.92;100.00
19748;BME280;10032;51.386;12.516;2022-12-18T07:15:34;101944.16;;;-8.90;100.00
19748;BME280;10032;51.386;12.516;2022-12-18T07:18:00;101944.84;;;-8.87;100.00
19748;BME280;10032;51.386;12.516;2022-12-18T07:20:25;101953.50;;;-8.85;100.00
19748;BME280;10032;51.386;12.516;2022-12-18T07:22:51;101941.31;;;-8.86;100.00
19748;BME280;10032;51.386;12.516;2022-12-18T07:25:16;101952.81;;;-8.88;100.00
19748;BME280;10032;51.386;12.516;2022-12-18T07:27:42;101955.44;;;-8.88;100.00
19748;BME280;10032;51.386;12.516;2022-12-18T07:30:11;101952.81;;;-8.88;100.00
19748;BME280;10032;51.386;12.516;2022-12-18T07:32:36;101963.13;;;-8.85;100.00
19748;BME280;10032;51.386;12.516;2022-12-18T07:35:02;101955.03;;;-8.81;100.00
19748;BME280;10032;51.386;12.516;2022-12-18T07:37:27;101962.78;;;-8.79;100.00
19748;BME280;10032;51.386;12.516;2022-12-18T07:39:53;101959.25;;;-8.78;100.00
19748;BME280;10032;51.386;12.516;2022-12-18T07:42:18;101950.44;;;-8.77;100.00
19748;BME280;10032;51.386;12.516;2022-12-18T07:44:56;101958.34;;;-8.77;100.00
19748;BME280;10032;51.386;12.516;2022-12-18T07:47:21;101954.63;;;-8.73;100.00
19748;BME280;10032;51.386;12.516;2022-12-18T07:49:47;101976.38;;;-8.71;100.00
19748;BME280;10032;51.386;12.516;2022-12-18T07:52:12;101977.19;;;-8.71;100.00
19748;BME280;10032;51.386;12.516;2022-12-18T07:54:38;101980.53;;;-8.67;100.00
19748;BME280;10032;51.386;12.516;2022-12-18T07:57:04;101977.72;;;-8.64;100.00
19748;BME280;10032;51.386;12.516;2022-12-18T07:59:29;101972.25;;;-8.60;100.00
19748;BME280;10032;51.386;12.516;2022-12-18T08:01:55;101983.41;;;-8.56;100.00
19748;BME280;10032;51.386;12.516;2022-12-18T08:04:20;101995.28;;;-8.49;100.00
19748;BME280;10032;51.386;12.516;2022-12-18T08:06:46;101999.09;;;-8.39;100.00
19748;BME280;10032;51.386;12.516;2022-12-18T08:09:14;101995.19;;;-8.32;100.00
19748;BME280;10032;51.386;12.516;2022-12-18T08:11:39;101995.03;;;-8.29;100.00
19748;BME280;10032;51.386;12.516;2022-12-18T08:14:05;101992.16;;;-8.25;100.00
19748;BME280;10032;51.386;12.516;2022-12-18T08:16:34;101990.75;;;-8.16;100.00
19748;BME280;10032;51.386;12.516;2022-12-18T08:18:59;101982.50;;;-8.10;100.00
19748;BME280;10032;51.386;12.516;2022-12-18T08:21:27;101991.78;;;-8.03;100.00
19748;BME280;10032;51.386;12.516;2022-12-18T08:23:55;101994.03;;;-7.97;100.00
19748;BME280;10032;51.386;12.516;2022-12-18T08:26:21;101993.84;;;-7.94;100.00
19748;BME280;10032;51.386;12.516;2022-12-18T08:28:48;101992.41;;;-7.84;100.00
19748;BME280;10032;51.386;12.516;2022-12-18T08:31:13;102006.13;;;-7.79;100.00
19748;BME280;10032;51.386;12.516;2022-12-18T08:33:40;102011.03;;;-7.73;100.00
19748;BME280;10032;51.386;12.516;2022-12-18T08:36:06;102004.44;;;-7.65;100.00
19748;BME280;10032;51.386;12.516;2022-12-18T08:38:33;102011.84;;;-7.57;100.00
19748;BME280;10032;51.386;12.516;2022-12-18T08:41:03;102002.69;;;-7.50;100.00
19748;BME280;10032;51.386;12.516;2022-12-18T08:43:31;102012.84;;;-7.44;100.00
19748;BME280;10032;51.386;12.516;2022-12-18T08:46:16;102008.91;;;-7.37;100.00
19748;BME280;10032;51.386;12.516;2022-12-18T08:48:42;101999.16;;;-7.35;100.00
19748;BME280;10032;51.386;12.516;2022-12-18T08:51:10;102004.06;;;-7.29;100.00
19748;BME280;10032;51.386;12.516;2022-12-18T08:53:38;102009.69;;;-7.21;100.00
19748;BME280;10032;51.386;12.516;2022-12-18T08:56:07;102012.53;;;-7.10;100.00
19748;BME280;10032;51.386;12.516;2022-12-18T08:58:35;102005.88;;;-7.02;100.00
19748;BME280;10032;51.386;12.516;2022-12-18T09:01:05;102010.78;;;-6.96;100.00
19748;BME280;10032;51.386;12.516;2022-12-18T09:03:31;102008.72;;;-6.91;100.00
19748;BME280;10032;51.386;12.516;2022-12-18T09:05:56;102014.25;;;-6.81;100.00
19748;BME280;10032;51.386;12.516;2022-12-18T09:08:22;102017.38;;;-6.75;100.00
19748;BME280;10032;51.386;12.516;2022-12-18T09:11:21;102017.16;;;-6.72;100.00
19748;BME280;10032;51.386;12.516;2022-12-18T09:13:52;102016.31;;;-6.58;100.00
19748;BME280;10032;51.386;12.516;2022-12-18T09:16:19;102027.25;;;-6.50;100.00
19748;BME280;10032;51.386;12.516;2022-12-18T09:18:47;102015.75;;;-6.49;100.00
19748;BME280;10032;51.386;12.516;2022-12-18T09:21:15;102017.16;;;-6.44;100.00
19748;BME280;10032;51.386;12.516;2022-12-18T09:23:41;102013.78;;;-6.32;100.00
19748;BME280;10032;51.386;12.516;2022-12-18T09:26:12;102003.56;;;-6.24;100.00
19748;BME280;10032;51.386;12.516;2022-12-18T09:28:38;102016.81;;;-6.11;100.00
19748;BME280;10032;51.386;12.516;2022-12-18T09:31:11;102011.06;;;-6.04;100.00
19748;BME280;10032;51.386;12.516;2022-12-18T09:33:40;102007.06;;;-5.97;100.00
19748;BME280;10032;51.386;12.516;2022-12-18T09:36:11;102007.06;;;-5.97;100.00
19748;BME280;10032;51.386;12.516;2022-12-18T09:38:40;102005.09;;;-5.93;100.00
19748;BME280;10032;51.386;12.516;2022-12-18T09:41:51;102006.50;;;-5.88;100.00
19748;BME280;10032;51.386;12.516;2022-12-18T09:44:50;101991.81;;;-5.79;100.00
19748;BME280;10032;51.386;12.516;2022-12-18T09:49:47;101989.31;;;-5.68;100.00
19748;BME280;10032;51.386;12.516;2022-12-18T09:57:56;101952.31;;;-5.54;100.00
19748;BME280;10032;51.386;12.516;2022-12-18T10:00:27;101953.81;;;-5.50;100.00
19748;BME280;10032;51.386;12.516;2022-12-18T10:03:00;101952.53;;;-5.45;100.00
19748;BME280;10032;51.386;12.516;2022-12-18T10:11:32;101941.25;;;-5.34;100.00
19748;BME280;10032;51.386;12.516;2022-12-18T10:14:15;101936.19;;;-5.25;100.00
19748;BME280;10032;51.386;12.516;2022-12-18T10:22:42;101945.59;;;-5.08;100.00
19748;BME280;10032;51.386;12.516;2022-12-18T10:28:18;101927.31;;;-4.99;100.00
19748;BME280;10032;51.386;12.516;2022-12-18T10:30:49;101916.00;;;-5.01;100.00
19748;BME280;10032;51.386;12.516;2022-12-18T10:33:27;101916.94;;;-4.89;100.00
19748;BME280;10032;51.386;12.516;2022-12-18T10:35:59;101910.28;;;-4.82;100.00
19748;BME280;10032;51.386;12.516;2022-12-18T10:38:31;101923.88;;;-4.76;100.00
19748;BME280;10032;51.386;12.516;2022-12-18T10:41:26;101920.41;;;-4.76;100.00
19748;BME280;10032;51.386;12.516;2022-12-18T10:44:12;101918.16;;;-4.70;100.00
19748;BME280;10032;51.386;12.516;2022-12-18T10:46:40;101914.34;;;-4.66;100.00
19748;BME280;10032;51.386;12.516;2022-12-18T10:49:18;101916.00;;;-4.52;100.00
19748;BME280;10032;51.386;12.516;2022-12-18T10:51:50;101909.09;;;-4.42;100.00
19748;BME280;10032;51.386;12.516;2022-12-18T10:54:20;101899.44;;;-4.31;100.00
19748;BME280;10032;51.386;12.516;2022-12-18T10:56:49;101886.88;;;-4.16;100.00
19748;BME280;10032;51.386;12.516;2022-12-18T10:59:18;101886.94;;;-4.05;100.00
19748;BME280;10032;51.386;12.516;2022-12-18T11:01:51;101897.56;;;-3.94;100.00
19748;BME280;10032;51.386;12.516;2022-12-18T11:04:28;101889.44;;;-3.80;100.00
19748;BME280;10032;51.386;12.516;2022-12-18T11:07:02;101893.69;;;-3.67;100.00
19748;BME280;10032;51.386;12.516;2022-12-18T11:09:33;101899.72;;;-3.65;100.00
19748;BME280;10032;51.386;12.516;2022-12-18T11:12:23;101896.00;;;-3.51;100.00
19748;BME280;10032;51.386;12.516;2022-12-18T11:14:54;101893.75;;;-3.45;100.00
19748;BME280;10032;51.386;12.516;2022-12-18T11:17:30;101896.78;;;-3.38;100.00
19748;BME280;10032;51.386;12.516;2022-12-18T11:20:04;101897.84;;;-3.41;100.00
19748;BME280;10032;51.386;12.516;2022-12-18T11:22:36;101887.63;;;-3.34;100.00
19748;BME280;10032;51.386;12.516;2022-12-18T11:25:16;101894.38;;;-3.30;100.00
19748;BME280;10032;51.386;12.516;2022-12-18T11:27:55;101900.88;;;-3.34;100.00
19748;BME280;10032;51.386;12.516;2022-12-18T11:30:33;101898.47;;;-3.26;100.00
19748;BME280;10032;51.386;12.516;2022-12-18T11:33:20;101907.16;;;-3.24;100.00
19748;BME280;10032;51.386;12.516;2022-12-18T11:35:53;101906.31;;;-3.14;100.00
19748;BME280;10032;51.386;12.516;2022-12-18T11:38:26;101902.22;;;-3.07;100.00
19748;BME280;10032;51.386;12.516;2022-12-18T11:43:44;101909.56;;;-3.10;100.00
19748;BME280;10032;51.386;12.516;2022-12-18T11:46:34;101920.41;;;-3.13;100.00
19748;BME280;10032;51.386;12.516;2022-12-18T11:49:03;101918.69;;;-3.25;100.00
19748;BME280;10032;51.386;12.516;2022-12-18T11:51:35;101913.63;;;-3.39;100.00
19748;BME280;10032;51.386;12.516;2022-12-18T11:54:14;101918.91;;;-3.50;100.00
19748;BME280;10032;51.386;12.516;2022-12-18T11:56:53;101908.16;;;-3.60;100.00
19748;BME280;10032;51.386;12.516;2022-12-18T11:59:58;101901.63;;;-3.67;100.00
19748;BME280;10032;51.386;12.516;2022-12-18T12:18:55;101902.00;;;-3.71;100.00
19748;BME280;10032;51.386;12.516;2022-12-18T12:22:20;101899.97;;;-3.68;100.00
19748;BME280;10032;51.386;12.516;2022-12-18T12:24:55;101893.63;;;-3.54;100.00
19748;BME280;10032;51.386;12.516;2022-12-18T12:27:38;101879.50;;;-3.55;100.00
19748;BME280;10032;51.386;12.516;2022-12-18T12:30:10;101868.44;;;-3.49;100.00
19748;BME280;10032;51.386;12.516;2022-12-18T12:32:49;101869.91;;;-3.45;100.00
19748;BME280;10032;51.386;12.516;2022-12-18T12:35:52;101858.50;;;-3.45;100.00
19748;BME280;10032;51.386;12.516;2022-12-18T12:38:28;101865.56;;;-3.57;100.00
19748;BME280;10032;51.386;12.516;2022-12-18T12:41:05;101863.28;;;-3.61;100.00
19748;BME280;10032;51.386;12.516;2022-12-18T12:43:41;101859.66;;;-3.60;100.00
19748;BME280;10032;51.386;12.516;2022-12-18T12:46:13;101865.19;;;-3.63;100.00
19748;BME280;10032;51.386;12.516;2022-12-18T12:51:32;101881.53;;;-3.69;100.00
19748;BME280;10032;51.386;12.516;2022-12-18T12:54:00;101884.53;;;-3.74;100.00
19748;BME280;10032;51.386;12.516;2022-12-18T12:56:45;101882.59;;;-3.72;100.00
19748;BME280;10032;51.386;12.516;2022-12-18T13:07:36;101869.50;;;-3.62;100.00
19748;BME280;10032;51.386;12.516;2022-12-18T13:12:56;101844.75;;;-3.61;100.00
19748;BME280;10032;51.386;12.516;2022-12-18T13:21:20;101843.53;;;-3.46;100.00
19748;BME280;10032;51.386;12.516;2022-12-18T13:23:48;101832.00;;;-3.45;100.00
19748;BME280;10032;51.386;12.516;2022-12-18T13:31:12;101824.78;;;-3.43;100.00
19748;BME280;10032;51.386;12.516;2022-12-18T13:36:26;101832.22;;;-3.48;100.00
19748;BME280;10032;51.386;12.516;2022-12-18T13:41:36;101831.53;;;-3.50;100.00
19748;BME280;10032;51.386;12.516;2022-12-18T13:46:47;101831.13;;;-3.57;100.00
19748;BME280;10032;51.386;12.516;2022-12-18T13:51:57;101838.00;;;-3.65;100.00
19748;BME280;10032;51.386;12.516;2022-12-18T13:54:36;101838.56;;;-3.73;100.00
19748;BME280;10032;51.386;12.516;2022-12-18T13:57:04;101839.88;;;-3.78;100.00
19748;BME280;10032;51.386;12.516;2022-12-18T13:59:39;101827.72;;;-3.81;100.00
19748;BME280;10032;51.386;12.516;2022-12-18T14:02:16;101812.91;;;-3.83;100.00
19748;BME280;10032;51.386;12.516;2022-12-18T14:04:46;101816.53;;;-3.84;100.00
19748;BME280;10032;51.386;12.516;2022-12-18T14:07:25;101807.38;;;-3.91;100.00
19748;BME280;10032;51.386;12.516;2022-12-18T14:09:53;101806.75;;;-3.95;100.00
19748;BME280;10032;51.386;12.516;2022-12-18T14:12:27;101816.97;;;-4.01;100.00
19748;BME280;10032;51.386;12.516;2022-12-18T14:20:32;101819.69;;;-4.14;100.00
19748;BME280;10032;51.386;12.516;2022-12-18T14:22:59;101816.19;;;-4.14;100.00
19748;BME280;10032;51.386;12.516;2022-12-18T14:25:28;101813.69;;;-4.16;100.00
19748;BME280;10032;51.386;12.516;2022-12-18T14:30:42;101811.56;;;-4.34;100.00
19748;BME280;10032;51.386;12.516;2022-12-18T14:33:17;101807.00;;;-4.32;100.00